• Join FlightAware (Why Join?)
  • Login
  • US Flag 
08:32AM EDT


 

Airport Tracker/Info


-or-


 

Live Flight TrackerFlight Track Log ✈ EJA729 ✈ 23-Jun-2013 ✈ MDPC / PUJ - KBWI

Flight Track Log - Related Links

Times and Time Zones

All times are in EDT time to prevent confusion due to time zone crossing. See the EJA729 flight status page for this flight to view local times or setup timezone preferences in your user account.

Time Position Orientation Groundspeed Altitude Reporting Facility
EDT Latitude Longitude Course Direction KTS MPH feet Rate Location/Type
01:30PM 18.5706 -68.3645 342° North  Level Estimated
01:31PM 18.6024 -68.3751 342° North  Level Estimated
01:32PM 18.6341 -68.3857 342° North  Level Estimated
01:33PM 18.6659 -68.3963 342° North  Level Estimated
01:34PM 18.6977 -68.4069 342° North  Level Estimated
01:35PM 18.7295 -68.4175 342° North  Level Estimated
01:36PM 18.7612 -68.4281 342° North  Level Estimated
01:37PM 18.7930 -68.4387 342° North  Level Estimated
01:38PM 18.8248 -68.4493 342° North  Level Estimated
01:39PM 18.8566 -68.4600 342° North  Level Estimated
01:40PM 18.8884 -68.4706 342° North  Level Estimated
01:41PM 18.9202 -68.4812 342° North  Level Estimated
01:42PM 18.9528 -68.4921 342° North  Level Estimated
01:43PM 18.9854 -68.5031 342° North  Level Estimated
01:44PM 19.0180 -68.5140 342° North  Level Estimated
01:45PM 19.0506 -68.5249 342° North  Level Estimated
01:46PM 19.1584 -68.5611 342° North  Level Estimated
01:47PM 19.2662 -68.5973 342° North  Level Estimated
01:48PM 19.3738 -68.6335 342° North  Level Estimated
01:49PM 19.4815 -68.6697 342° North  Level Estimated
01:50PM 19.5891 -68.7060 342° North  Level Estimated
01:51PM 19.6957 -68.7420 342° North  Level Estimated
01:52PM 19.8022 -68.7780 342° North  Level Estimated
01:53PM 19.9094 -68.8143 342° North  Level Estimated
01:54PM 20.0166 -68.8507 342° North  Level Estimated
01:55PM 20.1238 -68.8871 342° North  Level Estimated
01:56PM 20.2309 -68.9235 342° North  Level Estimated
01:57PM 20.3381 -68.9600 342° North  Level Estimated
01:58PM 20.4453 -68.9966 342° North  Level Estimated
01:59PM 20.5524 -69.0332 342° North  Level Estimated
02:00PM 20.6596 -69.0698 342° North  Level Estimated
02:01PM 20.7667 -69.1066 342° North  Level Estimated
02:02PM 20.8738 -69.1433 342° North  Level Estimated
02:03PM 20.9809 -69.1801 342° North  Level Estimated
02:04PM 21.0880 -69.2170 342° North  Level Estimated
02:05PM 21.1951 -69.2539 342° North  Level Estimated
02:06PM 21.3022 -69.2909 342° North  Level Estimated
02:07PM 21.4093 -69.3279 342° North  Level Estimated
02:08PM 21.5164 -69.3650 342° North  Level Estimated
02:09PM 21.6235 -69.4021 342° North  Level Estimated
02:10PM 21.7305 -69.4393 342° North  Level Estimated
02:11PM 21.8376 -69.4766 342° North  Level Estimated
02:12PM 21.9446 -69.5139 342° North  Level Estimated
02:13PM 22.0517 -69.5512 342° North  Level Estimated
02:14PM 22.1587 -69.5886 342° North  Level Estimated
02:15PM 22.2657 -69.6261 342° North  Level Estimated
02:16PM 22.3727 -69.6636 342° North  Level Estimated
02:17PM 22.4797 -69.7012 342° North  Level Estimated
02:18PM 22.5867 -69.7389 342° North  Level Estimated
02:19PM 22.6937 -69.7766 342° North  Level Estimated
02:20PM 22.8007 -69.8143 342° North  Level Estimated
02:20PM 25.0000 -71.0167 347° North 465 535 38,000  Level New York Oceanic (ODAPS)
02:21PM 22.9076 -69.8521 342° North  Level Estimated
02:22PM 23.0135 -69.8896 342° North  Level Estimated
02:23PM 23.1194 -69.9272 342° North  Level Estimated
02:24PM 23.2252 -69.9648 342° North  Level Estimated
02:25PM 23.3311 -70.0025 342° North  Level Estimated
02:26PM 26.1487 -71.3223 346° North 465 535 38,000  Level FlightAware Transoceanic
02:27PM 26.2763 -71.3567 346° North 465 535 38,000  Level FlightAware Transoceanic
02:28PM 26.4039 -71.3911 346° North 465 535 38,000  Level FlightAware Transoceanic
02:29PM 26.5315 -71.4256 346° North 465 535 38,000  Level FlightAware Transoceanic
02:30PM 26.6590 -71.4601 346° North 465 535 38,000  Level FlightAware Transoceanic
02:31PM 26.7866 -71.4948 346° North 465 535 38,000  Level FlightAware Transoceanic
02:32PM 26.9142 -71.5295 346° North 465 535 38,000  Level FlightAware Transoceanic
02:33PM 27.0417 -71.5643 346° North 465 535 38,000  Level FlightAware Transoceanic
02:34PM 27.1692 -71.5992 346° North 465 535 38,000  Level FlightAware Transoceanic
02:35PM 27.2968 -71.6341 346° North 465 535 38,000  Level FlightAware Transoceanic
02:36PM 27.4243 -71.6691 346° North 465 535 38,000  Level FlightAware Transoceanic
02:37PM 27.5518 -71.7042 346° North 465 535 38,000  Level FlightAware Transoceanic
02:38PM 27.6793 -71.7394 346° North 465 535 38,000  Level FlightAware Transoceanic
02:39PM 27.8068 -71.7747 346° North 465 535 38,000  Level FlightAware Transoceanic
02:40PM 27.9343 -71.8101 346° North 465 535 38,000  Level FlightAware Transoceanic
02:41PM 28.0618 -71.8455 346° North 465 535 38,000  Level FlightAware Transoceanic
02:42PM 28.1892 -71.8811 346° North 465 535 38,000  Level FlightAware Transoceanic
02:43PM 28.3167 -71.9167 346° North 465 535 38,000  Level FlightAware Transoceanic
02:44PM 28.4401 -71.9516 346° North 465 535 38,000  Level FlightAware Transoceanic
02:45PM 28.5634 -71.9867 346° North 465 535 38,000  Level FlightAware Transoceanic
02:46PM 28.6868 -72.0218 346° North 465 535 38,000  Level FlightAware Transoceanic
02:47PM 28.8102 -72.0570 346° North 465 535 38,000  Level FlightAware Transoceanic
02:48PM 28.9336 -72.0923 346° North 465 535 38,000  Level FlightAware Transoceanic
02:49PM 29.0569 -72.1277 346° North 465 535 38,000  Level FlightAware Transoceanic
02:50PM 29.1803 -72.1632 346° North 465 535 38,000  Level FlightAware Transoceanic
02:51PM 29.3036 -72.1987 346° North 465 535 38,000  Level FlightAware Transoceanic
02:52PM 29.4269 -72.2343 346° North 465 535 38,000  Level FlightAware Transoceanic
02:53PM 29.5502 -72.2701 346° North 465 535 38,000  Level FlightAware Transoceanic
02:54PM 29.6735 -72.3059 346° North 465 535 38,000  Level FlightAware Transoceanic
02:55PM 29.7968 -72.3418 346° North 465 535 38,000  Level FlightAware Transoceanic
02:56PM 29.9201 -72.3778 346° North 465 535 38,000  Level FlightAware Transoceanic
02:57PM 30.0434 -72.4138 346° North 465 535 38,000  Level FlightAware Transoceanic
02:58PM 30.1534 -72.4340 351° North  Level FlightAware Approximate
02:59PM 30.0434 -72.4140 171° South  Level FlightAware Approximate
03:00PM 30.1481 -72.4576 344° North  Level Estimated
03:01PM 30.2566 -72.4869 347° North  Level FlightAware Approximate
03:02PM 30.3650 -72.5163 347° North  Level FlightAware Approximate
03:03PM 30.4697 -72.5605 346° North  Level Estimated
03:04PM 30.5777 -72.5918 346° North  Level FlightAware Approximate
03:05PM 30.6858 -72.6231 346° North  Level FlightAware Approximate
03:06PM 30.7938 -72.6545 346° North  Level FlightAware Approximate
03:07PM 30.9018 -72.6860 346° North  Level FlightAware Approximate
03:08PM 31.0099 -72.7175 346° North  Level FlightAware Approximate
03:09PM 31.1179 -72.7491 346° North  Level FlightAware Approximate
03:10PM 31.2259 -72.7808 346° North  Level FlightAware Approximate
03:10PM 30.1667 -72.4500 346° North 446 513 38,000  Level New York Oceanic (ODAPS)
03:11PM 31.3339 -72.8126 346° North  Level FlightAware Approximate
03:12PM 31.4419 -72.8444 346° North  Level FlightAware Approximate
03:13PM 31.5499 -72.8763 346° North  Level FlightAware Approximate
03:14PM 31.6579 -72.9083 346° North  Level FlightAware Approximate
03:15PM 31.7658 -72.9403 346° North  Level FlightAware Approximate
03:16PM 32.3284 -73.1119 345° North 446 513 38,000  Level FlightAware Transoceanic
03:17PM 32.4484 -73.1496 345° North 446 513 38,000  Level FlightAware Transoceanic
03:18PM 32.5684 -73.1874 345° North 446 513 38,000  Level FlightAware Transoceanic
03:19PM 32.6883 -73.2252 345° North 446 513 38,000  Level FlightAware Transoceanic
03:20PM 32.8083 -73.2632 345° North 446 513 38,000  Level FlightAware Transoceanic
03:21PM 32.9282 -73.3013 345° North 446 513 38,000  Level FlightAware Transoceanic
03:22PM 33.0482 -73.3395 345° North 446 513 38,000  Level FlightAware Transoceanic
03:23PM 33.1681 -73.3778 345° North 446 513 38,000  Level FlightAware Transoceanic
03:24PM 33.2880 -73.4162 345° North 446 513 38,000  Level FlightAware Transoceanic
03:24PM 33.2144 -73.3931 345° North 462 532 38,000  Level New York Center
03:25PM 33.4079 -73.4547 345° North 446 513 38,000  Level FlightAware Transoceanic
03:25PM 33.3531 -73.4297 348° North 469 540 38,000  Level New York Center
03:26PM 33.5278 -73.4933 345° North 446 513 38,000  Level FlightAware Transoceanic
03:26PM 33.4836 -73.4714 345° North 474 545 38,000  Level New York Center
03:27PM 33.6477 -73.5321 345° North 446 513 38,000  Level FlightAware Transoceanic
03:27PM 33.6283 -73.5186 345° North 479 551 38,000  Level New York Center
03:28PM 33.7675 -73.5709 345° North 446 513 38,000  Level FlightAware Transoceanic
03:28PM 33.7508 -73.5403 352° North 485 558 38,000  Level New York Center
03:29PM 33.8792 -73.5847 344° North 478 550 38,000  Level New York Center
03:30PM 34.0075 -73.6267 345° North 478 550 38,000  Level New York Center
03:31PM 34.1403 -73.6539 350° North 478 550 38,000  Level New York Center
03:32PM 34.2756 -73.6589 358° North 478 550 38,000  Level New York Center
03:33PM 34.4089 -73.6739 355° North 478 550 38,000  Level New York Center
03:34PM 34.5400 -73.6836 357° North 478 550 38,000  Level New York Center
03:35PM 34.6733 -73.6911 357° North 473 544 38,000  Level New York Center
03:36PM 34.8086 -73.6961 358° North 478 550 38,000  Level New York Center
03:37PM 34.9419 -73.7036 357° North 478 550 38,000  Level New York Center
03:38PM 35.0711 -73.7108 357° North 473 544 38,000  Level New York Center
03:39PM 35.2022 -73.7311 353° North 473 544 38,000  Level New York Center
03:40PM 35.3306 -73.7664 347° North 473 544 38,000  Level New York Center
03:41PM 35.4525 -73.8069 345° North 466 536 38,000  Level New York Center
03:42PM 35.5872 -73.8403 349° North 466 536 38,000  Level New York Center
03:43PM 35.7156 -73.8761 347° North 471 542 38,000  Level New York Center
03:44PM 35.8219 -73.9597 328° Northwest 456 525 38,000  Level New York Center
03:45PM 35.9017 -74.0914 307° West 456 525 38,000  Level New York Center
03:46PM 35.9622 -74.2297 298° West 456 525 38,000  Level New York Center
03:47PM 36.0311 -74.3664 302° West 462 532 38,000  Level New York Center
03:48PM 36.1561 -74.6272 301° West 476 548 38,000  Level Washington Center
03:49PM 36.2219 -74.7656 301° West 471 542 38,000  Level Washington Center
03:50PM 36.2875 -74.9067 300° West 466 536 38,000  Level Washington Center
03:51PM 36.3550 -75.0478 301° West 466 536 38,000 -300 Level Washington Center
03:52PM 36.4203 -75.1867 300° West 466 536 37,400 -1,140 Descending Washington Center
03:53PM 36.4853 -75.3283 300° West 466 536 35,800 -1,200 Descending Washington Center
03:54PM 36.5522 -75.4628 302° West 466 536 35,000 -1,020 Descending Washington Center
03:55PM 36.6150 -75.6022 299° West 466 536 33,800 -1,380 Descending Washington Center
03:56PM 36.6817 -75.7447 300° West 466 536 32,200 -1,560 Descending Washington Center
03:57PM 36.7419 -75.8797 299° West 477 549 30,800 -1,500 Descending Washington Center
03:58PM 36.8083 -76.0225 300° West 482 555 29,300 -1,500 Descending Washington Center
03:59PM 36.8744 -76.1631 300° West 482 555 27,800 -1,560 Descending Washington Center
04:00PM 36.9489 -76.3039 304° West 482 555 26,300 -960 Descending Washington Center
04:01PM 37.0231 -76.4400 304° West 482 555 25,900 -660 Descending Washington Center
04:02PM 37.0972 -76.5736 305° West 477 549 25,000 -480 Descending Washington Center
04:03PM 37.1689 -76.7047 304° West 470 541 25,000 -120 Level Washington Center
04:04PM 37.2467 -76.8519 304° West 464 534 24,800 -780 Descending Washington Center
04:05PM 37.3567 -76.9061 339° North 453 521 23,500 -960 Descending Washington Center
04:06PM 37.5003 -76.9347 351° North 453 521 23,000 -300 Descending Washington Center
04:07PM 37.6336 -76.9633 350° North 472 543 23,000 -60 Level Washington Center
04:08PM 37.7625 -76.9944 349° North 472 543 22,900 -960 Descending Washington Center
04:09PM 37.8956 -77.0233 350° North 477 549 21,200 -1,740 Descending Washington Center
04:10PM 38.0183 -77.0519 350° North 464 534 19,500 -1,680 Descending Washington Center
04:11PM 38.1411 -77.0833 349° North 453 521 17,800 -1,500 Descending Washington Center
04:12PM 38.2553 -77.1094 350° North 432 497 16,500 -1,260 Descending Washington Center
04:13PM 38.3511 -77.1353 348° North 414 476 15,400 -1,380 Descending Washington Center
04:14PM 38.4456 -77.0683 29° Northeast 375 432 13,800 -1,680 Descending Washington Center
04:15PM 38.5175 -76.9769 45° Northeast 359 413 12,100 -1,440 Descending Washington Center
04:16PM 38.5831 -76.8956 44° Northeast 341 392 11,000 -1,080 Descending Washington Center
04:17PM 38.6467 -76.8169 44° Northeast 326 375 10,000 -960 Descending Washington Center
04:18PM 38.7056 -76.7408 45° Northeast 306 352 9,100 -1,140 Descending Washington Center
04:19PM 38.7461 -76.6511 60° Northeast 295 339 7,800 -1,440 Descending Washington Center
04:20PM 38.7833 -76.5500 65° Northeast 293 337 6,500 -1,740 Descending Potomac TRACON
04:21PM 38.8667 -76.5333 North 272 313 4,600 -1,380 Descending Potomac TRACON
04:22PM 38.9333 -76.5333 360° North 254 292 3,800 -1,200 Descending Potomac TRACON
04:23PM 39.0000 -76.5333 360° North 247 284 2,300 -1,020 Descending Potomac TRACON
04:24PM 39.0667 -76.5333 360° North 224 258 1,900 -420 Descending Potomac TRACON
04:25PM 39.1167 -76.6000 314° West 207 238 1,500 -660 Descending Potomac TRACON
04:26PM 39.1500 -76.6333 322° Northwest 163 188 600 -900 Descending Potomac TRACON
04:28PM 39.1667 -76.6667 339° North  Level FlightAware Approximate
04:35PM 39.1754 -76.6683 339° North  Level Estimated
04:36PM 39.1754 -76.6683 339° North  Level Estimated
04:37PM 39.1754 -76.6683 339° North  Level Estimated
04:38PM 39.1754 -76.6683 339° North  Level Estimated
04:39PM 39.1754 -76.6683 339° North  Level Estimated
04:40PM 39.1754 -76.6683 339° North  Level Estimated
04:41PM 39.1754 -76.6683 339° North  Level Estimated